Time;durP1;ratioP1;P1;durP2;ratioP2;P2;SDS_P1;SDS_P2;PMS_P1;PMS_P2;Temp;Humidity;BMP_temperature;BMP_pressure;BME280_temperature;BME280_humidity;BME280_pressure;Samples;Min_cycle;Max_cycle;Signal;HPM_P1;HPM_P2
2021/06/03 00:01:14;;;;;;;5.28;2.12;;;;;;;12.85;100.00;100431.21;1741579;80;20896;-87
2021/06/03 00:03:40;;;;;;;5.53;2.87;;;;;;;12.93;100.00;100432.78;1768299;80;22433;-86
2021/06/03 00:06:06;;;;;;;10.30;2.80;;;;;;;13.01;100.00;100428.70;1773043;80;21193;-85
2021/06/03 00:08:33;;;;;;;13.55;2.62;;;;;;;13.09;100.00;100426.75;1773600;80;21015;-89
2021/06/03 00:11:04;;;;;;;11.18;3.17;;;;;;;13.13;100.00;100425.09;1778184;80;21562;-91
2021/06/03 00:13:33;;;;;;;13.72;3.25;;;;;;;13.10;100.00;100421.59;1714823;83;20981;-85
2021/06/03 00:16:05;;;;;;;20.45;2.95;;;;;;;13.17;100.00;100418.02;1713143;82;21625;-83
2021/06/03 00:18:31;;;;;;;8.90;3.10;;;;;;;13.17;100.00;100411.25;1710389;83;22030;-87
2021/06/03 00:20:57;;;;;;;9.83;3.00;;;;;;;12.98;100.00;100405.46;1711215;83;20971;-87
2021/06/03 00:23:23;;;;;;;13.72;2.77;;;;;;;12.90;100.00;100398.19;1709053;83;21142;-91
2021/06/03 00:25:50;;;;;;;8.28;2.90;;;;;;;12.82;100.00;100390.66;1709984;83;21067;-86
2021/06/03 00:28:16;;;;;;;8.03;2.72;;;;;;;12.82;100.00;100391.20;1706447;83;21007;-86
2021/06/03 00:30:42;;;;;;;6.10;2.30;;;;;;;12.67;100.00;100401.56;1710113;83;21810;-88
2021/06/03 00:33:09;;;;;;;11.80;2.85;;;;;;;12.66;100.00;100386.44;1692010;83;21038;-85
2021/06/03 00:35:35;;;;;;;8.75;2.50;;;;;;;12.56;100.00;100385.13;1688795;84;21042;-87
2021/06/03 00:38:01;;;;;;;7.80;2.58;;;;;;;12.43;100.00;100396.80;1693997;83;21093;-84
2021/06/03 00:40:27;;;;;;;11.78;2.30;;;;;;;12.40;100.00;100394.66;1701069;83;21668;-93
2021/06/03 00:42:53;;;;;;;9.35;2.60;;;;;;;12.32;100.00;100394.42;1707618;82;21475;-88
2021/06/03 00:45:24;;;;;;;7.00;2.83;;;;;;;12.36;100.00;100394.16;1717365;82;21634;-89
2021/06/03 00:47:51;;;;;;;11.53;2.50;;;;;;;12.22;100.00;100387.17;1709391;81;21193;-84
2021/06/03 00:50:22;;;;;;;7.33;2.35;;;;;;;12.27;100.00;100378.50;1709777;83;21075;-88
2021/06/03 00:52:48;;;;;;;9.18;2.58;;;;;;;12.26;100.00;100378.77;1690474;83;21069;-89
2021/06/03 00:55:14;;;;;;;8.10;2.40;;;;;;;12.20;100.00;100383.37;1690854;84;21067;-85
2021/06/03 00:57:40;;;;;;;7.50;2.30;;;;;;;12.15;100.00;100377.21;1664863;84;21037;-86
2021/06/03 01:00:11;;;;;;;9.73;2.27;;;;;;;12.10;100.00;100385.33;1665653;85;21018;-89
2021/06/03 01:02:37;;;;;;;6.75;2.62;;;;;;;12.13;100.00;100379.37;1657703;85;21086;-88
2021/06/03 01:05:14;;;;;;;10.95;2.70;;;;;;;12.05;100.00;100376.68;1655763;85;20967;-94
2021/06/03 01:07:41;;;;;;;3.98;1.95;;;;;;;12.15;100.00;100371.27;1633780;86;21233;-89
2021/06/03 01:10:24;;;;;;;8.13;2.25;;;;;;;11.99;100.00;100371.03;1636770;86;21023;-90
2021/06/03 01:13:04;;;;;;;5.60;2.17;;;;;;;11.97;100.00;100371.84;1636417;86;21234;-88
2021/06/03 01:15:30;;;;;;;5.12;1.90;;;;;;;11.95;100.00;100376.18;1636947;86;21122;-90
2021/06/03 01:17:58;;;;;;;10.60;1.90;;;;;;;11.85;100.00;100380.75;1637804;86;21044;-87
2021/06/03 01:20:25;;;;;;;14.35;2.50;;;;;;;11.82;100.00;100365.91;1636940;86;21333;-92
2021/06/03 01:23:23;;;;;;;8.80;2.12;;;;;;;11.85;100.00;100371.30;1623084;85;21088;-85
2021/06/03 01:25:50;;;;;;;7.58;2.00;;;;;;;11.80;100.00;100355.39;1619858;87;21095;-87
2021/06/03 01:28:17;;;;;;;10.10;2.10;;;;;;;11.74;100.00;100364.59;1604334;88;21092;-85
2021/06/03 01:30:49;;;;;;;6.72;2.10;;;;;;;11.77;100.00;100355.94;1616985;87;21048;-82
2021/06/03 01:33:20;;;;;;;9.83;2.37;;;;;;;11.76;100.00;100353.50;1506398;93;21292;-86
2021/06/03 01:35:53;;;;;;;6.47;2.27;;;;;;;11.77;100.00;100349.73;1460748;98;21093;-86
2021/06/03 01:38:30;;;;;;;6.95;2.05;;;;;;;11.69;100.00;100352.44;1459924;98;21164;-89
2021/06/03 01:40:59;;;;;;;6.72;2.33;;;;;;;11.69;100.00;100345.69;1458594;97;21255;-85
2021/06/03 01:43:29;;;;;;;6.62;2.30;;;;;;;11.67;100.00;100346.50;1460756;97;21237;-88
2021/06/03 01:45:57;;;;;;;8.63;2.20;;;;;;;11.74;100.00;100349.73;1459763;97;21159;-85
2021/06/03 01:48:24;;;;;;;5.92;2.27;;;;;;;11.72;100.00;100351.89;1459902;96;21094;-85
2021/06/03 01:50:54;;;;;;;6.70;2.52;;;;;;;11.70;100.00;100346.50;1441174;97;21788;-88
2021/06/03 01:53:23;;;;;;;6.17;2.08;;;;;;;11.56;100.00;100347.08;1436441;98;21104;-87
2021/06/03 01:55:52;;;;;;;14.55;2.35;;;;;;;11.54;100.00;100344.38;1422480;97;21694;-87
2021/06/03 01:58:20;;;;;;;10.63;2.55;;;;;;;11.55;100.00;100337.89;1440463;97;22064;-88
2021/06/03 02:00:46;;;;;;;9.10;2.10;;;;;;;11.54;100.00;100336.28;1440892;97;21049;-86
2021/06/03 02:03:12;;;;;;;7.87;2.30;;;;;;;11.57;100.00;100337.09;1451164;94;21718;-89
2021/06/03 02:05:38;;;;;;;6.80;2.22;;;;;;;11.55;100.00;100336.54;1506707;93;21107;-89
2021/06/03 02:08:04;;;;;;;6.00;2.20;;;;;;;11.57;100.00;100337.09;1508727;93;21090;-89
2021/06/03 02:10:30;;;;;;;4.50;2.20;;;;;;;11.53;100.00;100335.99;1509764;93;21982;-90
2021/06/03 02:13:10;;;;;;;4.72;2.08;;;;;;;11.57;100.00;100332.48;1510438;93;20934;-85
2021/06/03 02:15:48;;;;;;;7.65;2.35;;;;;;;11.46;100.00;100334.12;1519568;93;21638;-86
2021/06/03 02:18:17;;;;;;;8.13;2.40;;;;;;;11.48;100.00;100339.52;1502431;94;21073;-92
2021/06/03 02:20:47;;;;;;;10.53;2.20;;;;;;;11.55;100.00;100339.23;1501119;94;21032;-85
2021/06/03 02:23:15;;;;;;;8.30;2.05;;;;;;;11.50;100.00;100337.38;1499424;94;21135;-85
2021/06/03 02:25:43;;;;;;;8.08;2.05;;;;;;;11.43;100.00;100336.02;1502471;94;21013;-89
2021/06/03 02:28:09;;;;;;;10.50;3.52;;;;;;;11.48;100.00;100338.72;1490562;94;21187;-88
2021/06/03 02:30:36;;;;;;;5.70;2.30;;;;;;;11.43;100.00;100337.38;1569015;86;21099;-84
2021/06/03 02:33:03;;;;;;;11.33;2.67;;;;;;;11.47;100.00;100339.78;1646742;84;21130;-84
2021/06/03 02:35:30;;;;;;;4.12;2.22;;;;;;;11.46;100.00;100336.28;1648759;84;22019;-90
2021/06/03 02:37:56;;;;;;;4.75;2.15;;;;;;;11.41;100.00;100337.62;1652520;80;21469;-89
2021/06/03 02:40:27;;;;;;;6.47;2.05;;;;;;;11.41;100.00;100338.17;1771538;79;21055;-84
2021/06/03 02:42:53;;;;;;;6.10;2.58;;;;;;;11.43;100.00;100338.17;1770497;80;21075;-90
2021/06/03 02:45:27;;;;;;;7.53;2.22;;;;;;;11.44;100.00;100329.53;1764814;79;21072;-87
2021/06/03 02:47:53;;;;;;;;;;;;;;;11.52;100.00;100333.84;1769078;79;21106;-86
2021/06/03 02:50:23;;;;;;;6.40;2.47;;;;;;;11.50;100.00;100334.67;1790371;79;20139;-87
2021/06/03 02:52:49;;;;;;;11.85;2.20;;;;;;;11.52;100.00;100341.13;1794390;79;20965;-86
2021/06/03 02:55:19;;;;;;;7.17;2.20;;;;;;;11.47;100.00;100336.57;1778515;78;20936;-86
2021/06/03 02:57:46;;;;;;;7.20;2.10;;;;;;;11.47;100.00;100338.43;1789532;79;21146;-85
2021/06/03 03:00:18;;;;;;;9.58;2.30;;;;;;;11.46;100.00;100342.22;1804436;77;21119;-85
2021/06/03 03:02:44;;;;;;;6.90;2.47;;;;;;;11.44;100.00;100356.00;1667415;84;21049;-88
2021/06/03 03:05:10;;;;;;;6.87;2.40;;;;;;;11.46;100.00;100344.92;1676651;85;20975;-83
2021/06/03 03:07:37;;;;;;;7.28;2.47;;;;;;;11.47;100.00;100337.09;1661395;85;21080;-83
2021/06/03 03:10:17;;;;;;;9.33;2.35;;;;;;;11.47;100.00;100345.18;1660214;85;21030;-90
2021/06/03 03:12:43;;;;;;;7.25;2.30;;;;;;;11.54;100.00;100331.69;1632711;86;21109;-88
2021/06/03 03:15:12;;;;;;;5.85;2.60;;;;;;;11.51;100.00;100334.12;1639596;86;21035;-90
2021/06/03 03:17:38;;;;;;;5.60;2.75;;;;;;;11.48;100.00;100331.43;1637978;86;21528;-85
2021/06/03 03:20:07;;;;;;;11.00;3.05;;;;;;;11.54;100.00;100328.19;1627276;86;20911;-87
2021/06/03 03:22:33;;;;;;;6.10;2.62;;;;;;;11.51;100.00;100323.33;1630214;86;21169;-90
2021/06/03 03:24:59;;;;;;;11.65;2.52;;;;;;;11.54;100.00;100322.79;1626880;86;21164;-86
2021/06/03 03:27:25;;;;;;;4.10;2.12;;;;;;;11.55;100.00;100314.41;1616585;87;20909;-89
2021/06/03 03:29:51;;;;;;;5.75;2.12;;;;;;;11.50;100.00;100325.75;1640460;87;20940;-89
2021/06/03 03:32:17;;;;;;;3.42;2.10;;;;;;;11.51;100.00;100319.28;1633503;86;21054;-90
2021/06/03 03:34:43;;;;;;;4.65;2.30;;;;;;;11.53;100.00;100323.33;1632582;86;21146;-87
2021/06/03 03:37:09;;;;;;;7.58;2.20;;;;;;;11.62;100.00;100332.20;1634946;86;21180;-90
2021/06/03 03:39:35;;;;;;;5.65;2.77;;;;;;;11.55;100.00;100325.74;1638995;86;21100;-90
2021/06/03 03:42:00;;;;;;;5.10;2.27;;;;;;;11.55;100.00;100329.25;1629978;86;21152;-89
2021/06/03 03:44:26;;;;;;;10.63;2.62;;;;;;;11.52;100.00;100327.64;1635980;86;21019;-84
2021/06/03 03:46:52;;;;;;;10.15;3.02;;;;;;;11.57;100.00;100326.29;1631946;86;20925;-89
2021/06/03 03:49:18;;;;;;;4.70;2.02;;;;;;;11.58;100.00;100333.30;1637526;86;21172;-86
2021/06/03 03:51:44;;;;;;;3.83;1.92;;;;;;;11.58;100.00;100330.05;1643584;87;21539;-84
2021/06/03 03:54:10;;;;;;;5.50;2.40;;;;;;;11.55;100.00;100331.14;1612848;87;20970;-89
2021/06/03 03:56:36;;;;;;;3.05;1.60;;;;;;;11.56;100.00;100330.88;1635622;86;21973;-84
2021/06/03 03:59:03;;;;;;;3.75;1.95;;;;;;;11.49;100.00;100341.67;1634120;86;20927;-91
2021/06/03 04:01:31;;;;;;;3.67;1.40;;;;;;;11.57;100.00;100340.59;1640141;86;21168;-88
2021/06/03 04:03:57;;;;;;;4.62;1.87;;;;;;;11.42;100.00;100351.95;1674208;83;21188;-88
2021/06/03 04:06:23;;;;;;;6.53;2.12;;;;;;;11.42;100.00;100339.27;1734705;79;21031;-87
2021/06/03 04:08:49;;;;;;;10.55;2.47;;;;;;;11.50;100.00;100341.94;1793295;79;21004;-92
2021/06/03 04:11:16;;;;;;;7.65;2.27;;;;;;;11.54;100.00;100341.13;1799875;77;20964;-91
2021/06/03 04:13:42;;;;;;;10.70;2.17;;;;;;;11.50;100.00;100344.63;1801169;79;21536;-87
2021/06/03 04:16:08;;;;;;;5.58;2.27;;;;;;;11.50;100.00;100353.56;1795398;79;20943;-89
2021/06/03 04:18:34;;;;;;;6.95;2.30;;;;;;;11.51;100.00;100357.06;1800362;77;21662;-85
2021/06/03 04:21:00;;;;;;;6.37;2.50;;;;;;;11.48;100.00;100357.61;1784067;78;20873;-87
2021/06/03 04:23:26;;;;;;;5.90;2.30;;;;;;;11.44;100.00;100382.98;1780011;78;21645;-88
2021/06/03 04:25:52;;;;;;;7.70;2.35;;;;;;;11.48;100.00;100358.96;1777792;79;21144;-84
2021/06/03 04:28:18;;;;;;;4.62;2.17;;;;;;;11.48;100.00;100362.46;1778193;79;20912;-88
2021/06/03 04:30:45;;;;;;;5.92;2.35;;;;;;;11.55;100.00;100359.48;1771060;79;21176;-84
2021/06/03 04:33:15;;;;;;;6.97;2.55;;;;;;;11.54;100.00;100361.92;1782746;79;21566;-87
2021/06/03 04:35:40;;;;;;;9.43;2.33;;;;;;;11.62;100.00;100359.19;1795343;78;20996;-90
2021/06/03 04:38:06;;;;;;;5.40;2.27;;;;;;;11.59;100.00;100364.07;1786617;79;21334;-85
2021/06/03 04:40:32;;;;;;;8.55;1.98;;;;;;;11.58;100.00;100366.48;1774023;79;20897;-87
2021/06/03 04:42:59;;;;;;;8.58;2.42;;;;;;;11.53;100.00;100360.28;1778215;80;21042;-87
2021/06/03 04:45:27;;;;;;;5.90;2.25;;;;;;;11.53;100.00;100361.11;1770644;80;20992;-91
2021/06/03 04:47:53;;;;;;;4.67;2.37;;;;;;;11.58;100.00;100356.23;1770478;80;21007;-84
2021/06/03 04:50:22;;;;;;;4.15;2.20;;;;;;;11.58;100.00;100358.39;1770696;80;21126;-92
2021/06/03 04:52:49;;;;;;;9.68;2.52;;;;;;;11.58;100.00;100352.98;1770172;80;21075;-86
2021/06/03 04:55:18;;;;;;;4.42;2.10;;;;;;;11.67;100.00;100356.49;1778183;78;21170;-88
2021/06/03 04:57:45;;;;;;;10.03;2.42;;;;;;;11.64;100.00;100352.44;1778231;79;21008;-89
2021/06/03 05:00:22;;;;;;;3.85;2.00;;;;;;;11.70;100.00;100351.90;1789327;78;21492;-86
2021/06/03 05:02:48;;;;;;;2.65;1.50;;;;;;;11.74;100.00;100357.03;1766742;79;20997;-85
2021/06/03 05:05:15;;;;;;;3.83;1.95;;;;;;;11.68;100.00;100358.13;1790885;78;21159;-89
2021/06/03 05:07:42;;;;;;;4.50;2.10;;;;;;;11.70;100.00;100358.64;1781536;79;21066;-87
2021/06/03 05:10:10;;;;;;;3.70;1.92;;;;;;;11.67;100.00;100360.54;1773667;79;21544;-88
2021/06/03 05:12:37;;;;;;;3.02;1.60;;;;;;;11.72;100.00;100357.30;1740294;82;21135;-87
2021/06/03 05:15:06;;;;;;;5.65;1.60;;;;;;;11.75;100.00;100355.94;1737939;81;21156;-88
2021/06/03 05:17:34;;;;;;;4.95;2.02;;;;;;;11.69;100.00;100357.84;1737106;81;20961;-92
2021/06/03 05:20:00;;;;;;;10.13;2.00;;;;;;;11.74;100.00;100354.34;1740175;81;21044;-88
2021/06/03 05:22:26;;;;;;;7.95;2.20;;;;;;;11.76;100.00;100357.55;1733615;80;21236;-91
2021/06/03 05:24:52;;;;;;;5.50;2.00;;;;;;;11.74;100.00;100363.23;1756378;78;21504;-91
2021/06/03 05:27:19;;;;;;;6.33;1.80;;;;;;;11.75;100.00;100362.14;1756964;80;21099;-89
2021/06/03 05:29:45;;;;;;;3.17;1.40;;;;;;;11.79;100.00;100367.80;1737916;80;21103;-90
2021/06/03 05:32:11;;;;;;;5.05;1.82;;;;;;;11.73;100.00;100361.60;1740997;81;21251;-90
2021/06/03 05:34:37;;;;;;;1.35;1.00;;;;;;;11.79;100.00;100355.13;1730164;80;21551;-87
2021/06/03 05:37:04;;;;;;;2.95;1.22;;;;;;;11.75;100.00;100359.45;1773059;79;21056;-88
2021/06/03 05:39:30;;;;;;;6.95;1.45;;;;;;;11.83;100.00;100359.44;1753992;80;21286;-89
2021/06/03 05:41:56;;;;;;;5.10;1.40;;;;;;;11.92;100.00;100353.77;1770685;80;21496;-85
2021/06/03 05:44:22;;;;;;;2.85;1.72;;;;;;;11.83;100.00;100365.64;1769769;79;21032;-90
2021/06/03 05:46:49;;;;;;;13.43;1.75;;;;;;;12.00;100.00;100359.97;1765216;79;21009;-94
2021/06/03 05:49:15;;;;;;;6.42;1.75;;;;;;;12.03;100.00;100358.61;1783648;79;20977;-90
2021/06/03 05:51:42;;;;;;;4.28;1.70;;;;;;;11.93;100.00;100369.43;1776970;79;21075;-90
2021/06/03 05:54:10;;;;;;;8.85;1.98;;;;;;;11.99;100.00;100358.87;1804562;78;21016;-89
2021/06/03 05:56:36;;;;;;;2.02;1.47;;;;;;;11.98;100.00;100360.77;1771855;80;21000;-93
2021/06/03 05:59:04;;;;;;;3.08;1.60;;;;;;;12.00;100.00;100373.98;1791623;78;21032;-83
2021/06/03 06:01:31;;;;;;;3.85;1.50;;;;;;;12.01;100.00;100358.87;1777288;78;20988;-86
2021/06/03 06:06:30;;;;;;;6.12;1.67;;;;;;;11.86;100.00;100366.22;1760951;80;21499;-84
2021/06/03 06:09:00;;;;;;;3.20;1.40;;;;;;;11.94;100.00;100372.39;1799290;79;21515;-84
2021/06/03 06:11:30;;;;;;;4.25;2.30;;;;;;;11.87;100.00;100365.13;1754485;80;21404;-84
2021/06/03 06:13:57;;;;;;;3.75;2.02;;;;;;;11.98;100.00;100372.13;1750188;80;21063;-84
2021/06/03 06:16:24;;;;;;;3.65;1.85;;;;;;;12.08;100.00;100378.83;1747256;81;21930;-83
2021/06/03 06:18:50;;;;;;;7.03;2.10;;;;;;;12.07;100.00;100383.17;1741499;80;21043;-85
2021/06/03 06:21:18;;;;;;;4.65;1.57;;;;;;;12.04;100.00;100379.93;1759515;80;20889;-84
2021/06/03 06:23:46;;;;;;;6.00;2.42;;;;;;;11.94;100.00;100395.34;1754371;81;21110;-82
2021/06/03 06:26:12;;;;;;;5.28;2.15;;;;;;;11.97;100.00;100388.88;1748287;81;21485;-84
2021/06/03 06:28:38;;;;;;;5.83;1.90;;;;;;;12.06;100.00;100390.47;1759062;81;21083;-81
2021/06/03 06:31:06;;;;;;;5.62;2.05;;;;;;;12.05;100.00;100397.74;1752601;80;21014;-85
2021/06/03 06:33:34;;;;;;;4.20;2.30;;;;;;;12.12;100.00;100389.37;1737080;80;21055;-84
2021/06/03 06:36:01;;;;;;;5.33;1.98;;;;;;;12.00;100.00;100394.24;1766949;80;21091;-83
2021/06/03 06:38:27;;;;;;;8.35;2.35;;;;;;;12.01;100.00;100395.88;1762848;80;21095;-83
2021/06/03 06:40:54;;;;;;;6.00;1.45;;;;;;;12.14;100.00;100397.19;1751239;80;21810;-82
2021/06/03 06:43:23;;;;;;;4.92;2.15;;;;;;;12.08;100.00;100404.49;1746274;81;21007;-86
2021/06/03 06:45:50;;;;;;;10.40;2.33;;;;;;;12.16;100.00;100403.94;1759063;80;21059;-86
2021/06/03 06:48:17;;;;;;;4.03;1.85;;;;;;;12.19;100.00;100402.58;1762869;80;21146;-82
2021/06/03 06:50:46;;;;;;;5.28;2.55;;;;;;;12.21;100.00;100409.87;1752910;81;21093;-84
2021/06/03 06:53:13;;;;;;;10.35;2.17;;;;;;;12.19;100.00;100407.44;1747087;80;21104;-82
2021/06/03 06:55:41;;;;;;;4.55;1.55;;;;;;;12.30;100.00;100409.57;1756984;80;21086;-84
2021/06/03 06:58:07;;;;;;;5.45;2.20;;;;;;;12.22;100.00;100416.34;1757468;80;21097;-84
2021/06/03 07:00:37;;;;;;;6.10;2.58;;;;;;;12.25;100.00;100417.14;1751980;80;21094;-85
2021/06/03 07:03:06;;;;;;;6.10;2.22;;;;;;;12.34;100.00;100413.33;1767378;80;21008;-84
2021/06/03 07:05:32;;;;;;;4.58;2.08;;;;;;;12.36;100.00;100418.47;1743192;80;21078;-86
2021/06/03 07:07:58;;;;;;;6.30;2.65;;;;;;;12.35;100.00;100420.34;1763162;79;21011;-83
2021/06/03 07:10:24;;;;;;;5.37;2.17;;;;;;;12.50;100.00;100420.30;1790485;78;21101;-84
2021/06/03 07:12:51;;;;;;;3.65;1.70;;;;;;;12.42;100.00;100428.17;1796965;79;20862;-82
2021/06/03 07:15:18;;;;;;;5.35;1.90;;;;;;;12.46;100.00;100437.34;1785292;78;21158;-88
2021/06/03 07:17:45;;;;;;;5.08;1.75;;;;;;;12.63;100.00;100433.76;1751667;79;21086;-85
2021/06/03 07:20:19;;;;;;;6.10;1.90;;;;;;;12.58;100.00;100430.27;1775278;79;21555;-85
2021/06/03 07:22:51;;;;;;;3.02;1.60;;;;;;;12.56;100.00;100448.13;1771751;80;20984;-84
2021/06/03 07:25:20;;;;;;;4.92;2.20;;;;;;;12.53;100.00;100461.36;1772122;80;21012;-86
2021/06/03 07:27:49;;;;;;;2.67;1.50;;;;;;;12.58;100.00;100447.28;1769398;80;21206;-88
2021/06/03 07:30:18;;;;;;;5.50;2.22;;;;;;;12.61;100.00;100452.69;1757352;78;21155;-84
2021/06/03 07:32:45;;;;;;;3.67;1.37;;;;;;;12.69;100.00;100454.82;1773151;79;21028;-83
2021/06/03 07:35:13;;;;;;;3.40;1.67;;;;;;;12.67;100.00;100457.79;1776231;80;21517;-85
2021/06/03 07:37:41;;;;;;;4.08;1.80;;;;;;;12.72;100.00;100460.48;1775350;80;20988;-85
2021/06/03 07:40:12;;;;;;;4.40;1.50;;;;;;;12.76;100.00;100466.69;1770815;80;20988;-83
2021/06/03 07:42:39;;;;;;;4.17;1.55;;;;;;;12.69;100.00;100467.80;1772182;79;21089;-85
2021/06/03 07:45:09;;;;;;;5.60;1.70;;;;;;;12.76;100.00;100469.39;1750153;80;21110;-87
2021/06/03 07:47:36;;;;;;;3.45;2.10;;;;;;;12.82;100.00;100473.69;1765164;80;21180;-87
2021/06/03 07:50:04;;;;;;;4.30;1.82;;;;;;;12.94;100.00;100487.69;1772768;80;21004;-86
2021/06/03 07:52:30;;;;;;;3.65;1.87;;;;;;;12.97;100.00;100488.51;1775429;80;21506;-84
2021/06/03 07:54:56;;;;;;;2.58;1.72;;;;;;;12.98;100.00;100491.47;1773142;80;21004;-85
2021/06/03 07:57:22;;;;;;;2.70;1.55;;;;;;;12.96;100.00;100487.67;1768311;80;21051;-83
2021/06/03 07:59:48;;;;;;;3.77;2.22;;;;;;;12.98;100.00;100497.43;1774632;80;21231;-84
2021/06/03 08:02:14;;;;;;;8.58;2.02;;;;;;;13.02;100.00;100499.83;1769720;80;21517;-88
2021/06/03 08:04:40;;;;;;;3.30;1.25;;;;;;;13.00;100.00;100504.19;1784096;79;21359;-82
2021/06/03 08:07:06;;;;;;;2.70;1.60;;;;;;;12.98;100.00;100525.28;1809805;78;21138;-83
2021/06/03 08:09:32;;;;;;;3.00;1.80;;;;;;;13.09;100.00;100523.35;1805835;79;22103;-80
2021/06/03 08:11:58;;;;;;;5.03;1.72;;;;;;;13.15;100.00;100520.34;1802976;79;20890;-82
2021/06/03 08:14:24;;;;;;;4.45;1.65;;;;;;;13.09;100.00;100511.17;1801241;79;20988;-85
2021/06/03 08:16:51;;;;;;;4.55;1.75;;;;;;;13.18;100.00;100529.25;1806600;77;20882;-83
2021/06/03 08:19:20;;;;;;;4.55;1.40;;;;;;;13.18;100.00;100527.09;1807544;79;21440;-84
2021/06/03 08:21:47;;;;;;;3.25;1.57;;;;;;;13.16;100.00;100530.06;1810798;78;21536;-89
2021/06/03 08:24:14;;;;;;;4.30;1.62;;;;;;;13.19;100.00;100534.91;1798924;78;21531;-89
2021/06/03 08:26:40;;;;;;;7.33;2.27;;;;;;;13.18;100.00;100546.03;1804284;79;21063;-89
2021/06/03 08:29:06;;;;;;;3.98;1.57;;;;;;;13.29;100.00;100539.48;1803101;78;20977;-88
2021/06/03 08:31:33;;;;;;;3.90;1.60;;;;;;;13.28;100.00;100541.13;1803369;79;21730;-88
2021/06/03 08:34:03;;;;;;;3.75;1.65;;;;;;;13.39;100.00;100545.41;1806106;79;20995;-88
2021/06/03 08:36:27;;;;;;;4.75;1.87;;;;;;;13.32;100.00;100545.69;1805187;79;21472;-85
2021/06/03 08:38:54;;;;;;;2.27;1.30;;;;;;;13.37;100.00;100547.02;1800388;78;21051;-84
2021/06/03 08:41:20;;;;;;;2.62;1.47;;;;;;;13.32;100.00;100555.16;1764153;79;21032;-85
2021/06/03 08:43:46;;;;;;;2.62;1.92;;;;;;;13.40;100.00;100556.48;1799316;78;21872;-86
2021/06/03 08:46:12;;;;;;;3.87;1.72;;;;;;;13.46;100.00;100559.42;1797648;79;21362;-92
2021/06/03 08:48:38;;;;;;;3.05;1.80;;;;;;;13.40;100.00;100558.64;1802527;79;21068;-87
2021/06/03 08:51:06;;;;;;;4.35;2.62;;;;;;;13.45;100.00;100563.78;1798848;79;21455;-89
2021/06/03 08:53:33;;;;;;;4.85;1.92;;;;;;;13.45;100.00;100567.30;1777604;79;21004;-88
2021/06/03 08:56:14;;;;;;;3.77;1.77;;;;;;;13.41;100.00;100570.27;1804046;78;21281;-88
2021/06/03 08:58:43;;;;;;;6.25;2.33;;;;;;;13.44;100.00;100575.13;1749307;79;21005;-91
2021/06/03 09:01:11;;;;;;;3.45;1.77;;;;;;;13.55;100.00;100582.11;1796317;79;21476;-88
2021/06/03 09:03:37;;;;;;;5.75;1.67;;;;;;;13.46;100.00;100599.23;1802979;78;21008;-91
2021/06/03 09:06:04;;;;;;;3.60;2.00;;;;;;;13.43;100.00;100594.38;1801474;79;21155;-86
2021/06/03 09:08:34;;;;;;;3.15;1.45;;;;;;;13.42;100.00;100594.92;1807494;79;21071;-90
2021/06/03 09:11:14;;;;;;;3.25;1.90;;;;;;;13.43;100.00;100595.18;1806419;79;20981;-88
2021/06/03 09:13:42;;;;;;;5.65;1.90;;;;;;;13.58;100.00;100600.50;1803560;78;20988;-88
2021/06/03 09:16:15;;;;;;;5.00;1.92;;;;;;;13.57;100.00;100595.39;1802038;79;21048;-85
2021/06/03 09:18:58;;;;;;;3.08;1.80;;;;;;;13.53;100.00;100600.55;1807749;78;20988;-92
2021/06/03 09:21:30;;;;;;;2.70;1.60;;;;;;;13.50;100.00;100602.47;1787573;79;22103;-93
2021/06/03 09:24:06;;;;;;;4.97;2.17;;;;;;;13.50;100.00;100605.70;1779286;79;21033;-86
2021/06/03 09:26:37;;;;;;;2.95;1.82;;;;;;;13.55;100.00;100609.73;1787525;79;21038;-91
2021/06/03 09:29:05;;;;;;;3.33;1.82;;;;;;;13.57;100.00;100604.86;1809140;78;21063;-83
2021/06/03 09:31:36;;;;;;;3.25;1.72;;;;;;;13.52;100.00;100613.80;1772316;80;21027;-86
2021/06/03 09:34:14;;;;;;;3.02;1.62;;;;;;;13.68;100.00;100610.48;1773642;80;21111;-86
2021/06/03 09:36:49;;;;;;;2.90;1.75;;;;;;;13.55;100.00;100620.02;1715881;82;21098;-84
2021/06/03 09:39:31;;;;;;;4.35;1.80;;;;;;;13.54;100.00;100627.08;1662415;85;21486;-86
2021/06/03 09:42:15;;;;;;;2.77;1.73;;;;;;;13.51;100.00;100626.28;1659736;85;21150;-87
2021/06/03 09:44:49;;;;;;;6.08;1.90;;;;;;;13.51;100.00;100629.80;1662516;85;21109;-88
2021/06/03 09:47:21;;;;;;;4.05;2.00;;;;;;;13.56;100.00;100639.78;1654675;85;21122;-88
2021/06/03 09:49:57;;;;;;;3.12;1.70;;;;;;;13.51;100.00;100639.82;1648722;86;21100;-87
2021/06/03 09:52:33;;;;;;;0.93;0.80;;;;;;;13.63;100.00;100649.23;1641328;86;21042;-87
2021/06/03 09:55:09;;;;;;;1.60;0.98;;;;;;;13.36;100.00;100659.10;1661821;84;21116;-88
2021/06/03 09:57:44;;;;;;;1.65;0.70;;;;;;;13.14;100.00;100655.89;1657144;85;21125;-88
2021/06/03 10:00:17;;;;;;;4.03;0.60;;;;;;;12.97;100.00;100657.58;1660192;85;21215;-87
2021/06/03 10:02:44;;;;;;;0.93;0.63;;;;;;;12.89;100.00;100663.54;1556921;90;21093;-88
2021/06/03 10:05:19;;;;;;;0.90;0.60;;;;;;;12.85;100.00;100663.80;1547043;92;21709;-88
2021/06/03 10:07:55;;;;;;;1.30;0.40;;;;;;;12.78;100.00;100672.20;1518862;92;21101;-87
2021/06/03 10:10:21;;;;;;;2.47;0.42;;;;;;;12.68;100.00;100677.09;1548964;90;21239;-87
2021/06/03 10:12:50;;;;;;;2.98;0.57;;;;;;;12.60;100.00;100684.92;1561963;90;21180;-87
2021/06/03 10:15:24;;;;;;;1.05;0.50;;;;;;;12.72;100.00;100685.45;1530427;92;21178;-87
2021/06/03 10:17:58;;;;;;;0.50;0.40;;;;;;;12.65;100.00;100692.50;1523290;92;22585;-88
2021/06/03 10:20:40;;;;;;;0.95;0.50;;;;;;;12.72;100.00;100693.57;1526194;92;21114;-88
2021/06/03 10:23:19;;;;;;;5.60;0.70;;;;;;;12.59;100.00;100697.64;1528498;93;21431;-87
2021/06/03 10:25:46;;;;;;;2.47;0.70;;;;;;;12.76;100.00;100702.75;1483164;95;21190;-87
2021/06/03 10:28:16;;;;;;;0.90;0.50;;;;;;;12.73;100.00;100716.30;1491643;95;21045;-87
2021/06/03 10:30:47;;;;;;;0.57;0.50;;;;;;;12.69;100.00;100698.98;1486379;95;21111;-87
2021/06/03 10:33:19;;;;;;;0.90;0.60;;;;;;;12.81;100.00;100720.88;1480953;94;47319;-88
2021/06/03 10:35:54;;;;;;;1.22;0.82;;;;;;;12.83;100.00;100716.83;1484021;93;22373;-87
2021/06/03 10:38:24;;;;;;;2.60;0.50;;;;;;;12.82;100.00;100736.81;1415457;99;21232;-88
2021/06/03 10:40:55;;;;;;;0.50;0.50;;;;;;;12.86;100.00;100723.59;1442154;97;21159;-89
2021/06/03 10:43:21;;;;;;;2.20;0.88;;;;;;;12.76;100.00;100733.84;1452969;97;21142;-88
2021/06/03 10:45:47;;;;;;;1.52;0.93;;;;;;;12.76;100.00;100731.69;1460956;97;22061;-87
2021/06/03 10:48:13;;;;;;;1.47;0.75;;;;;;;12.77;100.00;100740.90;1464233;96;21101;-88
2021/06/03 10:50:44;;;;;;;2.62;0.80;;;;;;;12.83;100.00;100741.16;1471956;95;21153;-87
2021/06/03 10:53:15;;;;;;;1.37;0.90;;;;;;;12.85;100.00;100739.52;1363758;102;21086;-87
2021/06/03 10:55:45;;;;;;;1.47;0.82;;;;;;;12.91;100.00;100739.27;1385031;101;21195;-87
2021/06/03 10:58:15;;;;;;;0.82;0.70;;;;;;;12.88;100.00;100753.86;1370967;102;21183;-87
2021/06/03 11:00:49;;;;;;;1.75;0.90;;;;;;;12.87;100.00;100752.25;1368661;103;21234;-87
2021/06/03 11:03:23;;;;;;;4.00;0.90;;;;;;;12.98;100.00;100753.06;1393402;99;21450;-87
2021/06/03 11:05:51;;;;;;;1.20;0.90;;;;;;;12.98;100.00;100759.83;1381948;102;21612;-87
2021/06/03 11:08:46;;;;;;;1.10;0.90;;;;;;;12.98;100.00;100767.39;1383956;102;21182;-86
2021/06/03 11:11:17;;;;;;;2.22;1.00;;;;;;;13.01;100.00;100764.14;1372512;101;21232;-87
2021/06/03 11:13:52;;;;;;;1.98;1.12;;;;;;;13.11;100.00;100764.67;1414247;100;21132;-87
2021/06/03 11:16:22;;;;;;;1.60;1.00;;;;;;;13.05;100.00;100771.98;1411424;99;21339;-86
2021/06/03 11:18:56;;;;;;;2.00;0.98;;;;;;;13.13;100.00;100768.73;1404265;101;21132;-86
2021/06/03 11:21:37;;;;;;;2.25;1.40;;;;;;;13.16;100.00;100772.24;1408843;101;21181;-86
2021/06/03 11:24:17;;;;;;;2.15;1.15;;;;;;;13.05;100.00;100776.03;1399653;100;21274;-86
2021/06/03 11:26:58;;;;;;;3.75;1.12;;;;;;;13.16;100.00;100780.36;1391402;100;21208;-85